Time;durP1;ratioP1;P1;durP2;ratioP2;P2;SDS_P1;SDS_P2;PMS_P1;PMS_P2;Temp;Humidity;BMP_temperature;BMP_pressure;BME280_temperature;BME280_humidity;BME280_pressure;Samples;Min_cycle;Max_cycle;Signal;HPM_P1;HPM_P2
2021/04/30 00:01:16;;;;;;;7.72;5.43;;;7.20;98.90;;;;;;5056312;28;20041;-78
2021/04/30 00:03:42;;;;;;;7.63;5.30;;;7.30;99.10;;;;;;5037220;28;20041;-78
2021/04/30 00:06:08;;;;;;;7.20;5.00;;;7.20;99.30;;;;;;5035852;28;20036;-78
2021/04/30 00:08:37;;;;;;;10.57;6.15;;;7.10;99.20;;;;;;5030748;28;22012;-80
2021/04/30 00:11:03;;;;;;;9.80;6.00;;;;;;;;;;5039552;28;20036;-79
2021/04/30 00:13:29;;;;;;;8.68;5.38;;;7.10;99.30;;;;;;5045178;28;20057;-80
2021/04/30 00:15:55;;;;;;;9.73;5.38;;;7.10;99.50;;;;;;5040398;28;20036;-80
2021/04/30 00:18:21;;;;;;;8.13;6.03;;;7.00;99.50;;;;;;5044052;28;20037;-79
2021/04/30 00:20:54;;;;;;;7.53;5.95;;;8.00;99.90;;;;;;5054863;28;20030;-81
2021/04/30 00:23:25;;;;;;;11.52;6.18;;;7.00;99.90;;;;;;5042950;28;20268;-79
2021/04/30 00:25:51;;;;;;;;;;;7.00;99.90;;;;;;5032726;28;20046;-79
2021/04/30 00:28:17;;;;;;;8.20;5.70;;;7.00;99.90;;;;;;5037578;28;19913;-80
2021/04/30 00:30:42;;;;;;;8.30;5.97;;;6.90;99.60;;;;;;5051749;28;20021;-79
2021/04/30 00:33:09;;;;;;;9.02;6.00;;;6.90;99.70;;;;;;5041876;28;20033;-79
2021/04/30 00:35:35;;;;;;;8.52;6.03;;;6.90;99.90;;;;;;5035534;28;20037;-80
2021/04/30 00:38:01;;;;;;;9.68;5.97;;;6.80;99.90;;;;;;5052703;28;20029;-80
2021/04/30 00:40:26;;;;;;;7.60;5.82;;;8.40;99.90;;;;;;5058402;28;20037;-79
2021/04/30 00:42:53;;;;;;;7.97;6.05;;;6.70;99.90;;;;;;5043039;28;20093;-79
2021/04/30 00:45:22;;;;;;;12.70;7.20;;;6.70;99.90;;;;;;5033789;28;20029;-80
2021/04/30 00:47:47;;;;;;;9.60;6.72;;;6.60;99.90;;;;;;5057703;28;20032;-78
2021/04/30 00:50:13;;;;;;;12.15;6.82;;;6.50;99.90;;;;;;5040512;28;20032;-79
2021/04/30 00:52:39;;;;;;;11.02;6.75;;;6.40;99.90;;;;;;5034721;28;20025;-80
2021/04/30 00:55:13;;;;;;;10.85;7.10;;;6.40;99.90;;;;;;5022385;28;20029;-77
2021/04/30 00:57:42;;;;;;;10.38;6.75;;;6.40;99.90;;;;;;5036614;28;20037;-76
2021/04/30 01:00:10;;;;;;;9.90;6.30;;;6.30;99.90;;;;;;5041382;28;20028;-79
2021/04/30 01:02:36;;;;;;;12.75;7.28;;;;;;;;;;5034242;28;20052;-79
2021/04/30 01:05:02;;;;;;;10.65;7.32;;;6.30;99.90;;;;;;5039930;28;20033;-79
2021/04/30 01:07:28;;;;;;;21.25;10.23;;;6.30;99.90;;;;;;5044246;28;20041;-79
2021/04/30 01:09:57;;;;;;;15.40;8.90;;;6.30;99.90;;;;;;5046162;28;20255;-82
2021/04/30 01:12:23;;;;;;;10.10;7.40;;;6.20;99.90;;;;;;5038981;28;20168;-79
2021/04/30 01:14:50;;;;;;;12.25;7.05;;;6.20;99.90;;;;;;5047065;28;20056;-78
2021/04/30 01:17:15;;;;;;;14.00;7.22;;;6.10;99.90;;;;;;5043060;28;20017;-78
2021/04/30 01:19:41;;;;;;;10.57;7.25;;;6.10;99.90;;;;;;5043929;28;20566;-80
2021/04/30 01:22:07;;;;;;;10.15;6.78;;;;;;;;;;5035813;28;20045;-80
2021/04/30 01:24:33;;;;;;;10.02;7.25;;;;;;;;;;5065334;28;20115;-80
2021/04/30 01:27:00;;;;;;;9.60;6.38;;;;;;;;;;5047244;28;20037;-81
2021/04/30 01:29:25;;;;;;;12.20;6.85;;;6.10;99.90;;;;;;5040421;28;20091;-80
2021/04/30 01:31:51;;;;;;;10.20;7.00;;;6.10;99.90;;;;;;5041017;28;20080;-79
2021/04/30 01:34:17;;;;;;;12.32;7.53;;;6.10;99.90;;;;;;5036002;28;20099;-79
2021/04/30 01:36:43;;;;;;;10.60;7.50;;;;;;;;;;5062283;28;20032;-79
2021/04/30 01:39:13;;;;;;;9.65;6.88;;;6.10;99.90;;;;;;5060427;28;20095;-77
2021/04/30 01:41:41;;;;;;;11.55;7.35;;;5.90;99.90;;;;;;5043608;28;20064;-79
2021/04/30 01:44:13;;;;;;;12.85;7.40;;;5.90;99.90;;;;;;5040176;28;20025;-79
2021/04/30 01:46:39;;;;;;;13.60;7.53;;;;;;;;;;5046197;28;20028;-79
2021/04/30 01:49:06;;;;;;;11.10;7.78;;;5.80;99.90;;;;;;5038853;28;20021;-81
2021/04/30 01:51:35;;;;;;;12.15;7.55;;;5.80;99.90;;;;;;5040433;28;20036;-81
2021/04/30 01:54:04;;;;;;;10.57;7.07;;;5.80;99.90;;;;;;5038044;28;20033;-79
2021/04/30 01:56:30;;;;;;;10.40;7.25;;;;;;;;;;5059609;28;20021;-80
2021/04/30 01:58:56;;;;;;;10.32;7.43;;;5.80;99.90;;;;;;5034614;28;20075;-79
2021/04/30 02:01:22;;;;;;;11.15;8.10;;;;;;;;;;5049123;28;20036;-79
2021/04/30 02:03:47;;;;;;;11.32;8.05;;;5.60;99.90;;;;;;5037698;28;20029;-78
2021/04/30 02:06:13;;;;;;;12.35;8.43;;;;;;;;;;5036606;28;20068;-80
2021/04/30 02:08:39;;;;;;;10.68;7.95;;;5.60;99.90;;;;;;5031461;28;20028;-80
2021/04/30 02:11:05;;;;;;;10.73;8.05;;;5.60;99.90;;;;;;5047908;28;20043;-78
2021/04/30 02:13:31;;;;;;;10.68;7.75;;;5.50;99.90;;;;;;5037898;28;20028;-78
2021/04/30 02:15:59;;;;;;;11.88;8.15;;;5.50;99.90;;;;;;5039691;28;20025;-78
2021/04/30 02:18:25;;;;;;;11.05;7.70;;;5.50;99.90;;;;;;5058861;28;20033;-78
2021/04/30 02:20:52;;;;;;;10.60;7.68;;;5.50;99.90;;;;;;5039009;28;20036;-79
2021/04/30 02:23:18;;;;;;;11.57;7.95;;;5.40;99.90;;;;;;5032854;28;20039;-77
2021/04/30 02:25:44;;;;;;;11.82;7.82;;;5.40;99.90;;;;;;5054590;28;20033;-78
2021/04/30 02:28:10;;;;;;;13.57;8.25;;;5.40;99.90;;;;;;5042979;28;20025;-78
2021/04/30 02:30:38;;;;;;;11.02;7.82;;;5.30;99.90;;;;;;5036948;28;20032;-79
2021/04/30 02:33:05;;;;;;;11.80;8.50;;;5.30;99.90;;;;;;5032591;28;20028;-79
2021/04/30 02:35:31;;;;;;;12.07;7.88;;;;;;;;;;5040241;28;20028;-79
2021/04/30 02:37:57;;;;;;;12.20;8.50;;;5.30;99.90;;;;;;5053375;28;20396;-79
2021/04/30 02:40:26;;;;;;;10.98;8.15;;;5.20;99.90;;;;;;5059761;28;20040;-79
2021/04/30 02:42:54;;;;;;;12.98;8.73;;;5.20;99.90;;;;;;5060155;28;20033;-78
2021/04/30 02:45:22;;;;;;;12.77;8.50;;;;;;;;;;5067848;28;20032;-80
2021/04/30 02:47:50;;;;;;;11.57;8.13;;;5.10;99.90;;;;;;5055487;28;20032;-79
2021/04/30 02:50:18;;;;;;;13.57;9.00;;;5.10;99.90;;;;;;5034629;28;20029;-77
2021/04/30 02:52:45;;;;;;;12.30;8.20;;;5.10;99.90;;;;;;5037354;28;20086;-77
2021/04/30 02:55:13;;;;;;;13.55;8.82;;;5.00;99.90;;;;;;5054916;28;20021;-78
2021/04/30 02:57:39;;;;;;;11.35;8.65;;;5.00;99.90;;;;;;5042976;28;20020;-79
2021/04/30 03:00:08;;;;;;;11.75;8.30;;;5.10;99.90;;;;;;5036171;28;20028;-78
2021/04/30 03:02:34;;;;;;;11.38;8.45;;;;;;;;;;5062951;28;20025;-79
2021/04/30 03:05:00;;;;;;;12.93;8.40;;;;;;;;;;5040980;28;20025;-79
2021/04/30 03:07:26;;;;;;;13.70;8.48;;;5.00;99.90;;;;;;5057406;28;20029;-78
2021/04/30 03:09:52;;;;;;;12.32;9.18;;;;;;;;;;5063122;28;20108;-79
2021/04/30 03:12:18;;;;;;;12.93;9.38;;;;;;;;;;5063979;28;20029;-78
2021/04/30 03:14:44;;;;;;;12.75;8.73;;;5.00;99.90;;;;;;5040880;28;20119;-78
2021/04/30 03:17:10;;;;;;;14.27;9.13;;;4.90;99.90;;;;;;5026652;28;20064;-78
2021/04/30 03:19:35;;;;;;;12.05;8.80;;;4.90;99.90;;;;;;5028308;28;20400;-78
2021/04/30 03:22:01;;;;;;;13.85;8.52;;;4.90;99.90;;;;;;5035014;28;20463;-78
2021/04/30 03:24:27;;;;;;;11.63;8.40;;;7.30;99.90;;;;;;5057026;28;20033;-78
2021/04/30 03:26:53;;;;;;;14.98;9.68;;;4.80;99.90;;;;;;5038961;28;20040;-78
2021/04/30 03:29:18;;;;;;;12.63;9.00;;;4.80;99.90;;;;;;5040700;28;20468;-79
2021/04/30 03:31:44;;;;;;;13.55;9.05;;;4.70;99.90;;;;;;5035120;28;20028;-77
2021/04/30 03:34:11;;;;;;;11.18;8.45;;;4.70;99.90;;;;;;5053692;28;20772;-79
2021/04/30 03:36:37;;;;;;;14.10;8.90;;;;;;;;;;5056249;28;20023;-78
2021/04/30 03:39:04;;;;;;;13.38;8.60;;;4.70;99.90;;;;;;5059082;28;20040;-78
2021/04/30 03:41:30;;;;;;;15.52;9.57;;;;;;;;;;5061234;28;20308;-79
2021/04/30 03:43:56;;;;;;;14.90;9.40;;;;;;;;;;5039037;28;20037;-77
2021/04/30 03:46:22;;;;;;;12.95;8.50;;;4.60;99.90;;;;;;5031537;28;20063;-79
2021/04/30 03:48:47;;;;;;;13.85;8.90;;;4.70;99.90;;;;;;5056399;28;20033;-76
2021/04/30 03:51:13;;;;;;;12.25;9.52;;;4.60;99.90;;;;;;5037700;28;20025;-76
2021/04/30 03:53:39;;;;;;;13.88;10.00;;;4.60;99.90;;;;;;5036382;28;20060;-79
2021/04/30 03:56:05;;;;;;;12.70;8.95;;;4.60;99.90;;;;;;5038292;28;20025;-79
2021/04/30 03:58:30;;;;;;;13.63;8.85;;;4.50;99.90;;;;;;5055842;28;20047;-78
2021/04/30 04:00:56;;;;;;;13.02;9.18;;;4.50;99.90;;;;;;5033193;28;20037;-80
2021/04/30 04:03:22;;;;;;;14.35;9.68;;;;;;;;;;5037114;28;20041;-81
2021/04/30 04:05:48;;;;;;;16.30;10.02;;;4.50;99.90;;;;;;5049578;28;20033;-79
2021/04/30 04:08:14;;;;;;;14.43;8.73;;;;;;;;;;5049702;28;20111;-78
2021/04/30 04:10:40;;;;;;;14.25;9.50;;;;;;;;;;5044831;28;20025;-78
2021/04/30 04:13:26;;;;;;;13.65;9.20;;;4.40;99.90;;;;;;5046236;28;20036;-80
2021/04/30 04:15:54;;;;;;;13.02;8.82;;;4.40;99.90;;;;;;5039571;28;20291;-79
2021/04/30 04:18:23;;;;;;;15.88;11.15;;;4.30;99.90;;;;;;5056184;28;20028;-76
2021/04/30 04:20:48;;;;;;;16.30;10.07;;;4.40;99.90;;;;;;5039216;28;20043;-79
2021/04/30 04:23:14;;;;;;;16.23;9.90;;;;;;;;;;5038275;28;20057;-79
2021/04/30 04:25:40;;;;;;;15.43;9.93;;;4.30;99.90;;;;;;5039500;28;20025;-77
2021/04/30 04:28:06;;;;;;;15.38;9.77;;;4.40;99.90;;;;;;5030568;28;20504;-80
2021/04/30 04:30:33;;;;;;;16.33;9.75;;;4.80;99.90;;;;;;5052291;28;20029;-78
2021/04/30 04:32:59;;;;;;;16.70;10.60;;;;;;;;;;5030490;28;20025;-78
2021/04/30 04:35:25;;;;;;;13.75;10.30;;;;;;;;;;5034461;28;20092;-76
2021/04/30 04:37:53;;;;;;;16.08;10.63;;;4.40;99.90;;;;;;5028133;28;20036;-78
2021/04/30 04:40:18;;;;;;;15.10;10.40;;;4.50;99.90;;;;;;5035654;28;20056;-79
2021/04/30 04:42:45;;;;;;;13.27;9.40;;;4.60;99.90;;;;;;5033128;28;20033;-78
2021/04/30 04:45:13;;;;;;;17.75;10.40;;;4.60;99.90;;;;;;5026873;28;20036;-77
2021/04/30 04:47:39;;;;;;;13.93;10.38;;;4.60;99.90;;;;;;5042525;28;20028;-78
2021/04/30 04:50:06;;;;;;;15.60;10.10;;;4.50;99.90;;;;;;5023008;28;20124;-80
2021/04/30 04:52:32;;;;;;;15.43;10.23;;;4.60;99.90;;;;;;5024804;28;20904;-78
2021/04/30 04:54:57;;;;;;;14.88;10.50;;;4.60;99.90;;;;;;5024315;28;20120;-78
2021/04/30 04:57:23;;;;;;;16.73;11.20;;;4.60;99.90;;;;;;5027959;28;20021;-79
2021/04/30 04:59:48;;;;;;;16.30;10.93;;;4.60;99.90;;;;;;5035808;28;20044;-77
2021/04/30 05:02:14;;;;;;;17.15;11.70;;;4.70;99.90;;;;;;5046961;28;20033;-77
2021/04/30 05:04:40;;;;;;;16.35;10.73;;;4.70;99.90;;;;;;5031615;28;20032;-78
2021/04/30 05:07:05;;;;;;;16.20;11.30;;;4.90;99.90;;;;;;5030573;28;20148;-78
2021/04/30 05:09:31;;;;;;;15.13;10.38;;;5.00;99.90;;;;;;5046785;28;20024;-79
2021/04/30 05:11:56;;;;;;;15.95;10.60;;;5.20;99.90;;;;;;5038228;28;20032;-79
2021/04/30 05:14:22;;;;;;;17.83;11.25;;;5.30;99.90;;;;;;5049062;28;20033;-79
2021/04/30 05:16:48;;;;;;;15.77;10.15;;;5.30;99.90;;;;;;5032021;28;20108;-77
2021/04/30 05:19:14;;;;;;;18.85;10.45;;;5.30;99.90;;;;;;5028947;28;20021;-81
2021/04/30 05:21:41;;;;;;;17.05;10.50;;;5.40;99.90;;;;;;5047423;28;20024;-78
2021/04/30 05:24:11;;;;;;;16.25;10.32;;;5.30;99.90;;;;;;5026000;28;20040;-79
2021/04/30 05:26:37;;;;;;;17.25;11.20;;;5.40;99.90;;;;;;5047291;28;20111;-79
2021/04/30 05:29:04;;;;;;;16.30;11.35;;;;;;;;;;5044628;28;20068;-79
2021/04/30 05:31:30;;;;;;;17.38;11.75;;;5.40;99.90;;;;;;5055167;28;20377;-79
2021/04/30 05:33:55;;;;;;;19.70;11.82;;;5.40;99.90;;;;;;5045869;28;20021;-78
2021/04/30 05:36:21;;;;;;;16.95;11.95;;;5.40;99.90;;;;;;5046671;28;20024;-79
2021/04/30 05:38:47;;;;;;;19.48;11.70;;;5.40;99.90;;;;;;5048923;28;20037;-79
2021/04/30 05:41:13;;;;;;;18.90;11.73;;;;;;;;;;5029868;28;20553;-77
2021/04/30 05:43:38;;;;;;;15.82;11.15;;;5.50;99.90;;;;;;5033184;28;20112;-77
2021/04/30 05:46:04;;;;;;;18.63;11.20;;;5.50;99.90;;;;;;5033541;28;20754;-76
2021/04/30 05:48:29;;;;;;;18.67;12.07;;;5.60;99.90;;;;;;5056781;28;20100;-76
2021/04/30 05:50:55;;;;;;;19.58;12.00;;;7.30;99.90;;;;;;5053366;28;20036;-79
2021/04/30 05:53:22;;;;;;;20.48;12.25;;;5.60;99.90;;;;;;5049298;28;20025;-80
2021/04/30 05:55:48;;;;;;;18.65;12.00;;;;;;;;;;5045884;28;20169;-79
2021/04/30 05:58:14;;;;;;;17.02;11.98;;;5.70;99.90;;;;;;5033376;28;20029;-80
2021/04/30 06:00:39;;;;;;;17.58;12.15;;;5.80;99.90;;;;;;5041747;28;20442;-78
2021/04/30 06:03:05;;;;;;;21.02;12.63;;;5.80;99.90;;;;;;5038461;28;20179;-78
2021/04/30 06:05:31;;;;;;;17.83;12.20;;;5.80;99.90;;;;;;5035381;28;20020;-79
2021/04/30 06:07:57;;;;;;;18.35;12.27;;;;;;;;;;5031289;28;20483;-78
2021/04/30 06:10:23;;;;;;;19.13;12.10;;;5.90;99.90;;;;;;5053209;28;20036;-78
2021/04/30 06:12:48;;;;;;;18.38;12.52;;;6.00;99.90;;;;;;5022899;28;20025;-77
2021/04/30 06:15:14;;;;;;;18.55;13.20;;;6.00;99.90;;;;;;5031990;28;20032;-79
2021/04/30 06:17:40;;;;;;;19.65;13.02;;;6.20;99.90;;;;;;5044951;28;21455;-78
2021/04/30 06:20:06;;;;;;;17.77;12.85;;;6.20;99.90;;;;;;5052044;28;20029;-79
2021/04/30 06:22:32;;;;;;;21.00;14.05;;;6.30;99.90;;;;;;5045200;28;20096;-78
2021/04/30 06:24:57;;;;;;;18.30;12.73;;;6.40;99.90;;;;;;5028716;28;20055;-78
2021/04/30 06:27:24;;;;;;;22.15;13.18;;;7.00;99.90;;;;;;5051535;28;20025;-77
2021/04/30 06:29:52;;;;;;;20.50;14.18;;;;;;;;;;5028267;28;20025;-76
2021/04/30 06:32:17;;;;;;;22.80;15.07;;;6.50;99.90;;;;;;5016416;28;20080;-78
2021/04/30 06:34:43;;;;;;;20.75;13.32;;;6.50;99.90;;;;;;5033534;28;20041;-78
2021/04/30 06:37:09;;;;;;;23.85;14.13;;;6.50;99.90;;;;;;5023387;28;20033;-81
2021/04/30 06:39:34;;;;;;;22.83;14.35;;;6.30;99.90;;;;;;5030198;28;20037;-78
2021/04/30 06:42:02;;;;;;;22.42;13.95;;;6.50;99.90;;;;;;5041111;28;20037;-75
2021/04/30 06:44:29;;;;;;;24.83;14.90;;;6.70;99.90;;;;;;5014406;28;20056;-78
2021/04/30 06:46:56;;;;;;;20.30;13.52;;;;;;;;;;5025340;28;20119;-78
2021/04/30 06:49:21;;;;;;;25.10;15.10;;;6.80;99.90;;;;;;5042488;28;20029;-75
2021/04/30 06:51:49;;;;;;;23.90;15.38;;;;;;;;;;5029027;28;20028;-80
2021/04/30 06:54:15;;;;;;;24.67;13.63;;;;;;;;;;5026184;28;20506;-75
2021/04/30 06:56:41;;;;;;;21.67;14.02;;;6.70;99.90;;;;;;5028172;28;20053;-80
2021/04/30 06:59:12;;;;;;;24.20;14.32;;;6.80;99.90;;;;;;5029371;28;20446;-79
2021/04/30 07:01:41;;;;;;;;;;;6.80;99.90;;;;;;5033664;28;20391;-79
2021/04/30 07:04:07;;;;;;;21.40;13.30;;;;;;;;;;5050651;28;19915;-79
2021/04/30 07:06:34;;;;;;;22.40;14.75;;;6.80;99.90;;;;;;5046039;28;20033;-76
2021/04/30 07:09:00;;;;;;;23.42;14.45;;;6.90;99.90;;;;;;5032205;28;20506;-79
2021/04/30 07:11:26;;;;;;;21.67;14.77;;;7.00;99.90;;;;;;5041618;28;20502;-79
2021/04/30 07:13:51;;;;;;;23.25;13.82;;;7.00;99.90;;;;;;5035731;28;20025;-80
2021/04/30 07:16:18;;;;;;;21.70;14.20;;;;;;;;;;5034222;28;20376;-77
2021/04/30 07:18:44;;;;;;;19.55;14.20;;;7.70;99.90;;;;;;5045796;28;20036;-79
2021/04/30 07:21:10;;;;;;;24.48;14.50;;;;;;;;;;5040755;28;20020;-79
2021/04/30 07:23:36;;;;;;;23.42;14.40;;;7.20;99.90;;;;;;5056586;28;20108;-79
2021/04/30 07:26:02;;;;;;;21.70;13.70;;;7.30;99.90;;;;;;5055779;28;20081;-76
2021/04/30 07:28:28;;;;;;;24.02;14.50;;;9.50;99.90;;;;;;5038502;28;20025;-78
2021/04/30 07:30:54;;;;;;;19.50;13.80;;;;;;;;;;5046735;28;20028;-78
2021/04/30 07:33:20;;;;;;;20.02;14.55;;;7.50;99.70;;;;;;5022926;28;20033;-79
2021/04/30 07:35:46;;;;;;;22.92;13.45;;;;;;;;;;5036060;28;20032;-79
2021/04/30 07:38:12;;;;;;;25.27;14.88;;;;;;;;;;5048539;28;20651;-79
2021/04/30 07:40:40;;;;;;;20.95;14.45;;;7.70;99.20;;;;;;5023058;28;20029;-79
2021/04/30 07:43:11;;;;;;;19.80;13.93;;;7.70;99.50;;;;;;5044981;28;20037;-79
2021/04/30 07:45:38;;;;;;;24.77;14.10;;;7.70;99.70;;;;;;5047176;28;20036;-79
2021/04/30 07:48:04;;;;;;;22.08;14.30;;;7.70;99.90;;;;;;5038861;28;20045;-79
2021/04/30 07:50:30;;;;;;;20.38;14.48;;;7.80;99.90;;;;;;5040390;28;20062;-79
2021/04/30 07:52:56;;;;;;;21.40;13.57;;;;;;;;;;5040295;28;20025;-80
2021/04/30 07:55:22;;;;;;;22.27;14.73;;;7.80;99.20;;;;;;5025095;28;20104;-79
2021/04/30 07:57:48;;;;;;;20.52;14.27;;;7.90;99.20;;;;;;5020862;28;20102;-80
2021/04/30 08:00:14;;;;;;;21.50;14.68;;;;;;;;;;5041235;28;20455;-79
2021/04/30 08:02:40;;;;;;;22.33;14.90;;;9.20;98.60;;;;;;5035219;28;20079;-80
2021/04/30 08:05:07;;;;;;;23.70;14.50;;;8.10;98.00;;;;;;5047861;28;20029;-79
2021/04/30 08:07:33;;;;;;;20.63;14.18;;;8.10;98.00;;;;;;5029027;28;20029;-80
2021/04/30 08:09:59;;;;;;;21.77;13.25;;;8.10;98.20;;;;;;5028736;28;20292;-79
2021/04/30 08:12:24;;;;;;;20.55;13.95;;;8.20;97.90;;;;;;5028788;28;20032;-80
2021/04/30 08:14:50;;;;;;;20.10;13.57;;;;;;;;;;5024196;28;20478;-80
2021/04/30 08:17:16;;;;;;;22.23;14.05;;;;;;;;;;5025520;28;20072;-79
2021/04/30 08:19:42;;;;;;;19.70;14.27;;;;;;;;;;5047899;28;20029;-81
2021/04/30 08:22:08;;;;;;;18.55;14.02;;;8.20;98.10;;;;;;5027786;28;20029;-78
2021/04/30 08:24:34;;;;;;;21.77;14.43;;;8.20;98.30;;;;;;5024823;28;20025;-80
2021/04/30 08:27:02;;;;;;;22.48;14.45;;;8.30;98.00;;;;;;5048131;28;20037;-80
2021/04/30 08:29:28;;;;;;;19.25;14.38;;;;;;;;;;5024269;28;20068;-80
2021/04/30 08:31:54;;;;;;;23.48;13.75;;;;;;;;;;5018877;28;20031;-79
2021/04/30 08:34:20;;;;;;;22.90;13.98;;;8.50;97.20;;;;;;5047847;28;20093;-79
2021/04/30 08:36:45;;;;;;;22.40;13.93;;;8.50;97.30;;;;;;5026437;28;20064;-79
2021/04/30 08:39:12;;;;;;;20.92;14.70;;;8.60;97.60;;;;;;5030299;28;20039;-77
2021/04/30 08:41:38;;;;;;;20.35;13.75;;;8.80;96.20;;;;;;5038840;28;20025;-79
2021/04/30 08:44:05;;;;;;;19.42;13.70;;;8.80;96.50;;;;;;5039222;28;20025;-76
2021/04/30 08:46:31;;;;;;;19.40;14.05;;;8.90;96.60;;;;;;5045356;28;20499;-79
2021/04/30 08:49:04;;;;;;;19.58;13.80;;;8.80;96.70;;;;;;5024120;28;20029;-80
2021/04/30 08:51:30;;;;;;;23.10;15.13;;;8.90;95.80;;;;;;5043638;28;20092;-79
2021/04/30 08:53:56;;;;;;;25.23;14.18;;;8.90;95.80;;;;;;5025973;28;20053;-81
2021/04/30 08:56:22;;;;;;;22.38;13.05;;;;;;;;;;5044507;28;20032;-79
2021/04/30 08:58:48;;;;;;;19.13;13.43;;;9.40;94.30;;;;;;5042875;28;20063;-79
2021/04/30 09:01:14;;;;;;;23.00;13.63;;;9.60;94.20;;;;;;5025747;28;20133;-78
2021/04/30 09:03:40;;;;;;;17.83;13.63;;;9.60;94.40;;;;;;5025079;28;20064;-78
2021/04/30 09:06:06;;;;;;;19.05;12.88;;;9.70;94.10;;;;;;5023455;28;20107;-79
2021/04/30 09:08:45;;;;;;;18.20;12.32;;;9.90;93.60;;;;;;5043217;28;20025;-77
2021/04/30 09:11:30;;;;;;;20.83;12.63;;;10.20;91.80;;;;;;5027941;28;20021;-80
2021/04/30 09:14:32;;;;;;;18.75;12.07;;;10.20;91.80;;;;;;5042533;28;20470;-80
2021/04/30 09:17:15;;;;;;;16.90;12.07;;;10.30;91.90;;;;;;5046451;28;20514;-82
2021/04/30 09:19:55;;;;;;;17.38;12.40;;;10.50;91.40;;;;;;5049913;28;20443;-80
2021/04/30 09:22:27;;;;;;;16.25;11.15;;;10.40;90.40;;;;;;5043380;28;20111;-80
2021/04/30 09:24:59;;;;;;;14.77;10.30;;;10.50;90.70;;;;;;5041646;28;20087;-81
2021/04/30 09:27:39;;;;;;;11.43;8.85;;;10.40;87.70;;;;;;5023449;28;20064;-78
2021/04/30 09:30:27;;;;;;;13.40;8.35;;;10.30;84.40;;;;;;5026071;28;20036;-77
2021/04/30 09:33:16;;;;;;;12.43;8.25;;;10.40;82.90;;;;;;5039774;28;20119;-79
2021/04/30 09:35:43;;;;;;;14.48;9.43;;;10.50;82.50;;;;;;5043344;28;20307;-77
2021/04/30 09:38:24;;;;;;;12.20;8.38;;;10.50;81.60;;;;;;5030767;28;20036;-77
2021/04/30 09:40:51;;;;;;;;;;;10.40;81.20;;;;;;5041689;28;20037;-79
2021/04/30 09:43:18;;;;;;;19.02;9.88;;;10.50;81.90;;;;;;5048823;28;19935;-76
2021/04/30 09:45:48;;;;;;;11.85;8.65;;;10.50;82.20;;;;;;5046068;28;20550;-79
2021/04/30 09:48:14;;;;;;;15.82;8.65;;;10.40;79.80;;;;;;5046236;28;20037;-80
2021/04/30 09:50:43;;;;;;;11.05;8.23;;;10.40;80.40;;;;;;5039280;28;20025;-80
2021/04/30 09:53:13;;;;;;;9.57;7.90;;;10.30;79.80;;;;;;5043469;28;20108;-80
2021/04/30 09:55:40;;;;;;;12.57;8.55;;;10.10;79.60;;;;;;5025220;28;20033;-79
2021/04/30 09:58:23;;;;;;;13.30;8.50;;;9.90;80.70;;;;;;5028045;28;20029;-82
2021/04/30 10:00:51;;;;;;;12.52;7.43;;;9.90;82.50;;;;;;5051377;28;20084;-78
2021/04/30 10:03:25;;;;;;;13.13;7.40;;;9.90;78.70;;;;;;5034483;28;20033;-81
2021/04/30 10:06:00;;;;;;;14.40;9.10;;;9.90;79.70;;;;;;5042359;28;20048;-81
2021/04/30 10:08:26;;;;;;;13.77;8.35;;;12.20;81.60;;;;;;5029209;28;21279;-77
2021/04/30 10:10:51;;;;;;;11.82;7.90;;;9.80;79.70;;;;;;5029030;28;20112;-79
2021/04/30 10:13:17;;;;;;;13.77;9.13;;;10.10;79.60;;;;;;5031943;28;20028;-78
2021/04/30 10:15:42;;;;;;;13.10;8.98;;;10.20;79.80;;;;;;5038057;28;20033;-76
2021/04/30 10:18:08;;;;;;;15.55;9.02;;;10.40;81.30;;;;;;5028769;28;20029;-79
2021/04/30 10:20:34;;;;;;;15.05;9.73;;;10.50;82.10;;;;;;5045454;28;20087;-79
2021/04/30 10:23:02;;;;;;;17.30;9.48;;;10.60;82.50;;;;;;5029177;28;20029;-79
2021/04/30 10:25:29;;;;;;;13.55;9.30;;;10.60;82.20;;;;;;5042898;28;20033;-80
2021/04/30 10:27:56;;;;;;;14.45;9.60;;;10.50;82.90;;;;;;5027082;28;20482;-80
2021/04/30 10:30:49;;;;;;;13.40;9.55;;;10.20;83.20;;;;;;5038292;28;20033;-82
2021/04/30 10:33:21;;;;;;;13.23;9.05;;;10.80;81.00;;;;;;5030704;28;20041;-80
2021/04/30 10:35:57;;;;;;;14.32;9.68;;;10.90;81.20;;;;;;5026140;28;20033;-78
2021/04/30 10:38:27;;;;;;;14.07;9.43;;;11.00;81.20;;;;;;5020078;28;20041;-80
2021/04/30 10:40:59;;;;;;;14.80;9.63;;;11.30;81.00;;;;;;5028179;28;20060;-82
2021/04/30 10:43:25;;;;;;;21.58;9.32;;;11.00;79.60;;;;;;5048870;28;20031;-79
2021/04/30 10:45:59;;;;;;;14.35;9.13;;;11.10;80.90;;;;;;5044101;28;20029;-77
2021/04/30 10:48:26;;;;;;;17.65;9.63;;;11.20;80.60;;;;;;5051207;28;20033;-79
2021/04/30 10:50:51;;;;;;;13.20;9.80;;;11.30;79.40;;;;;;5037088;28;20063;-78
2021/04/30 10:53:26;;;;;;;12.30;8.63;;;11.30;78.70;;;;;;5038461;28;20036;-78
2021/04/30 10:55:52;;;;;;;13.65;8.90;;;11.30;80.00;;;;;;5039577;28;20080;-80
2021/04/30 10:58:37;;;;;;;13.18;9.20;;;11.50;77.70;;;;;;5051257;28;20021;-79
2021/04/30 11:01:34;;;;;;;12.82;9.40;;;11.40;76.40;;;;;;5030289;28;20071;-77
2021/04/30 11:04:16;;;;;;;11.57;8.90;;;11.40;76.80;;;;;;5048362;28;20041;-81
2021/04/30 11:06:48;;;;;;;13.43;9.10;;;11.40;77.10;;;;;;5030687;28;20032;-81
2021/04/30 11:09:19;;;;;;;11.95;9.02;;;11.60;76.60;;;;;;5052650;28;20025;-80
2021/04/30 11:11:46;;;;;;;12.93;9.52;;;11.70;74.70;;;;;;5045721;28;20062;-81
2021/04/30 11:14:17;;;;;;;15.73;10.35;;;11.70;74.30;;;;;;5041257;28;20052;-79
2021/04/30 11:16:44;;;;;;;12.30;9.32;;;11.70;75.00;;;;;;5046916;28;20041;-80
2021/04/30 11:19:10;;;;;;;13.15;9.02;;;11.30;73.00;;;;;;5036182;28;20027;-78
2021/04/30 11:21:42;;;;;;;12.68;8.60;;;11.10;73.70;;;;;;5044962;28;20029;-82
2021/04/30 11:24:39;;;;;;;13.00;8.18;;;11.20;74.30;;;;;;5045217;28;20025;-81
2021/04/30 11:27:35;;;;;;;12.68;8.57;;;11.20;72.60;;;;;;5044226;28;20029;-81
2021/04/30 11:30:21;;;;;;;12.40;7.93;;;10.90;74.30;;;;;;5015279;28;20042;-81
2021/04/30 11:32:55;;;;;;;11.40;7.97;;;10.80;73.00;;;;;;5032708;28;20032;-79
2021/04/30 11:35:22;;;;;;;12.48;8.93;;;10.90;74.20;;;;;;5053241;28;20546;-79
2021/04/30 11:37:49;;;;;;;16.15;9.00;;;11.10;75.30;;;;;;5035040;28;20048;-81
2021/04/30 11:40:16;;;;;;;12.52;8.48;;;11.30;74.60;;;;;;5034071;28;20032;-82
2021/04/30 11:42:42;;;;;;;13.30;8.68;;;11.40;73.90;;;;;;5032605;28;20044;-80
2021/04/30 11:45:08;;;;;;;14.00;10.10;;;11.40;74.30;;;;;;5034996;28;20033;-82
2021/04/30 11:47:37;;;;;;;12.43;8.60;;;11.40;74.10;;;;;;5031690;28;20095;-79
2021/04/30 11:50:05;;;;;;;11.65;7.55;;;11.30;75.30;;;;;;5032192;28;20049;-80
2021/04/30 11:52:36;;;;;;;11.23;7.78;;;11.30;76.20;;;;;;5042210;28;20032;-79
2021/04/30 11:55:05;;;;;;;11.38;7.75;;;11.30;76.70;;;;;;5058447;28;20440;-80
2021/04/30 11:57:31;;;;;;;10.15;7.35;;;11.10;77.50;;;;;;5037855;28;20092;-81
2021/04/30 11:59:57;;;;;;;14.35;8.23;;;11.20;78.20;;;;;;5043808;28;20104;-83
2021/04/30 12:02:28;;;;;;;12.27;7.47;;;11.20;78.00;;;;;;5026496;28;20174;-80
2021/04/30 12:04:54;;;;;;;12.00;8.05;;;11.20;77.80;;;;;;5043566;28;20107;-79
2021/04/30 12:07:23;;;;;;;12.15;7.75;;;11.00;78.10;;;;;;5029479;28;20040;-81
2021/04/30 12:09:49;;;;;;;11.75;8.10;;;10.90;78.60;;;;;;5045261;28;20123;-76
2021/04/30 12:12:25;;;;;;;10.00;7.75;;;11.00;79.00;;;;;;5041810;28;20119;-79
2021/04/30 12:14:51;;;;;;;12.93;7.45;;;12.70;80.20;;;;;;5003102;28;20044;-80
2021/04/30 12:17:34;;;;;;;12.52;8.20;;;11.20;78.00;;;;;;5047807;28;20021;-81
2021/04/30 12:20:09;;;;;;;10.85;8.20;;;11.00;78.40;;;;;;5009523;28;20124;-79
2021/04/30 12:22:55;;;;;;;12.93;6.88;;;11.20;78.10;;;;;;5026208;28;20028;-80
2021/04/30 12:25:26;;;;;;;12.18;6.88;;;11.10;79.20;;;;;;5041903;28;20024;-78
2021/04/30 12:27:52;;;;;;;13.93;8.27;;;11.40;78.90;;;;;;5021313;28;20029;-81
2021/04/30 12:30:27;;;;;;;12.63;6.22;;;11.50;77.50;;;;;;5024831;28;20029;-80
2021/04/30 12:32:52;;;;;;;11.95;6.70;;;11.50;77.90;;;;;;5030668;28;20040;-81
2021/04/30 12:35:18;;;;;;;9.85;6.35;;;11.80;76.80;;;;;;5029105;28;20025;-81
2021/04/30 12:37:44;;;;;;;8.25;6.20;;;11.90;76.50;;;;;;5043211;28;20129;-81
2021/04/30 12:40:10;;;;;;;10.15;6.93;;;12.10;75.50;;;;;;5024734;28;20152;-81
2021/04/30 12:42:47;;;;;;;10.10;7.32;;;12.40;74.50;;;;;;5026604;28;20025;-79
2021/04/30 12:45:14;;;;;;;10.20;6.78;;;12.70;72.80;;;;;;5039312;28;20053;-80
2021/04/30 12:47:41;;;;;;;12.23;7.38;;;12.40;73.20;;;;;;5046688;28;20025;-79
2021/04/30 12:50:10;;;;;;;10.13;7.47;;;12.50;73.00;;;;;;5027469;28;20413;-81
2021/04/30 12:52:36;;;;;;;10.90;7.03;;;12.50;72.20;;;;;;5025255;28;20052;-79
2021/04/30 12:55:23;;;;;;;11.80;7.97;;;12.50;70.50;;;;;;5042051;28;20017;-79
2021/04/30 12:58:24;;;;;;;12.48;8.10;;;12.50;71.20;;;;;;5028966;28;20105;-80
2021/04/30 13:01:01;;;;;;;13.40;7.95;;;12.50;71.20;;;;;;4953075;28;20086;-76